sensor_id;sensor_type;location;lat;lon;timestamp;P1;durP1;ratioP1;P2;durP2;ratioP2
34521;SDS011;25561;48.888;8.736;2023-05-10T05:31:44;6.10;;;3.95;;
34521;SDS011;25561;48.888;8.736;2023-05-10T05:34:45;8.15;;;4.25;;
34521;SDS011;25561;48.888;8.736;2023-05-10T05:37:47;6.72;;;4.40;;
34521;SDS011;25561;48.888;8.736;2023-05-10T05:40:49;6.47;;;4.18;;
34521;SDS011;25561;48.888;8.736;2023-05-10T05:43:51;17.90;;;10.18;;
34521;SDS011;25561;48.888;8.736;2023-05-10T05:46:53;7.72;;;3.85;;
34521;SDS011;25561;48.888;8.736;2023-05-10T05:49:54;6.70;;;3.90;;
34521;SDS011;25561;48.888;8.736;2023-05-10T05:52:56;9.25;;;4.95;;
34521;SDS011;25561;48.888;8.736;2023-05-10T05:55:58;8.93;;;5.82;;
34521;SDS011;25561;48.888;8.736;2023-05-10T05:59:00;7.75;;;3.10;;
34521;SDS011;25561;48.888;8.736;2023-05-10T06:02:02;7.10;;;2.40;;
34521;SDS011;25561;48.888;8.736;2023-05-10T06:05:04;8.25;;;2.00;;
34521;SDS011;25561;48.888;8.736;2023-05-10T06:08:06;5.28;;;1.90;;
34521;SDS011;25561;48.888;8.736;2023-05-10T06:11:08;3.35;;;1.90;;
34521;SDS011;25561;48.888;8.736;2023-05-10T06:49:53;3.63;;;0.80;;
34521;SDS011;25561;48.888;8.736;2023-05-10T06:52:56;3.85;;;1.08;;
34521;SDS011;25561;48.888;8.736;2023-05-10T06:55:57;4.22;;;1.30;;
34521;SDS011;25561;48.888;8.736;2023-05-10T06:58:59;3.13;;;1.30;;
34521;SDS011;25561;48.888;8.736;2023-05-10T07:02:01;3.00;;;0.90;;
34521;SDS011;25561;48.888;8.736;2023-05-10T07:05:03;1.58;;;1.10;;
34521;SDS011;25561;48.888;8.736;2023-05-10T07:08:05;3.70;;;0.90;;
34521;SDS011;25561;48.888;8.736;2023-05-10T07:11:08;1.80;;;0.80;;
34521;SDS011;25561;48.888;8.736;2023-05-10T07:14:10;2.05;;;0.80;;
34521;SDS011;25561;48.888;8.736;2023-05-10T07:17:14;6.72;;;1.13;;
34521;SDS011;25561;48.888;8.736;2023-05-10T07:20:16;2.45;;;1.23;;
34521;SDS011;25561;48.888;8.736;2023-05-10T07:23:19;2.50;;;0.85;;
34521;SDS011;25561;48.888;8.736;2023-05-10T07:26:21;6.43;;;0.80;;
34521;SDS011;25561;48.888;8.736;2023-05-10T07:29:23;2.08;;;1.00;;
34521;SDS011;25561;48.888;8.736;2023-05-10T07:32:25;2.35;;;1.08;;
34521;SDS011;25561;48.888;8.736;2023-05-10T07:35:27;4.47;;;1.30;;
34521;SDS011;25561;48.888;8.736;2023-05-10T07:38:29;1.00;;;0.82;;
34521;SDS011;25561;48.888;8.736;2023-05-10T07:41:30;2.17;;;1.02;;
34521;SDS011;25561;48.888;8.736;2023-05-10T07:44:34;4.40;;;1.30;;
34521;SDS011;25561;48.888;8.736;2023-05-10T07:47:36;1.55;;;1.10;;
34521;SDS011;25561;48.888;8.736;2023-05-10T07:50:37;3.78;;;1.45;;
34521;SDS011;25561;48.888;8.736;2023-05-10T07:53:39;1.42;;;1.20;;
34521;SDS011;25561;48.888;8.736;2023-05-10T07:56:41;0.80;;;0.70;;
34521;SDS011;25561;48.888;8.736;2023-05-10T07:59:48;3.13;;;0.60;;
34521;SDS011;25561;48.888;8.736;2023-05-10T08:02:50;1.77;;;0.77;;
34521;SDS011;25561;48.888;8.736;2023-05-10T08:05:52;4.80;;;0.88;;
34521;SDS011;25561;48.888;8.736;2023-05-10T08:08:55;0.82;;;0.70;;
34521;SDS011;25561;48.888;8.736;2023-05-10T08:11:59;1.45;;;0.60;;
34521;SDS011;25561;48.888;8.736;2023-05-10T08:15:01;0.40;;;0.40;;
34521;SDS011;25561;48.888;8.736;2023-05-10T08:18:05;1.85;;;0.70;;
34521;SDS011;25561;48.888;8.736;2023-05-10T08:21:08;1.55;;;0.60;;
34521;SDS011;25561;48.888;8.736;2023-05-10T08:24:13;5.18;;;0.90;;
34521;SDS011;25561;48.888;8.736;2023-05-10T08:27:19;3.60;;;0.82;;
34521;SDS011;25561;48.888;8.736;2023-05-10T08:30:22;0.82;;;0.65;;
34521;SDS011;25561;48.888;8.736;2023-05-10T08:33:26;0.60;;;0.50;;
34521;SDS011;25561;48.888;8.736;2023-05-10T08:36:29;3.38;;;0.65;;
34521;SDS011;25561;48.888;8.736;2023-05-10T08:39:34;2.50;;;0.60;;
34521;SDS011;25561;48.888;8.736;2023-05-10T08:42:40;3.05;;;1.17;;
34521;SDS011;25561;48.888;8.736;2023-05-10T08:45:51;4.40;;;0.90;;
34521;SDS011;25561;48.888;8.736;2023-05-10T08:48:56;4.70;;;1.37;;
34521;SDS011;25561;48.888;8.736;2023-05-10T08:52:05;0.95;;;0.55;;
34521;SDS011;25561;48.888;8.736;2023-05-10T08:55:08;1.67;;;0.80;;
34521;SDS011;25561;48.888;8.736;2023-05-10T08:58:11;1.73;;;0.63;;
34521;SDS011;25561;48.888;8.736;2023-05-10T09:01:13;2.30;;;0.70;;
34521;SDS011;25561;48.888;8.736;2023-05-10T09:04:17;5.60;;;1.33;;
34521;SDS011;25561;48.888;8.736;2023-05-10T09:07:21;1.48;;;0.70;;
34521;SDS011;25561;48.888;8.736;2023-05-10T09:10:23;7.57;;;1.10;;
34521;SDS011;25561;48.888;8.736;2023-05-10T09:13:28;9.27;;;0.70;;
34521;SDS011;25561;48.888;8.736;2023-05-10T09:16:31;1.73;;;1.20;;
34521;SDS011;25561;48.888;8.736;2023-05-10T09:19:33;2.42;;;0.60;;
34521;SDS011;25561;48.888;8.736;2023-05-10T09:22:35;3.47;;;1.10;;
34521;SDS011;25561;48.888;8.736;2023-05-10T09:25:37;2.65;;;1.60;;
34521;SDS011;25561;48.888;8.736;2023-05-10T09:28:49;3.83;;;1.35;;
34521;SDS011;25561;48.888;8.736;2023-05-10T09:31:56;2.78;;;0.93;;
34521;SDS011;25561;48.888;8.736;2023-05-10T09:34:58;3.53;;;0.98;;
34521;SDS011;25561;48.888;8.736;2023-05-10T09:38:29;1.88;;;0.80;;
34521;SDS011;25561;48.888;8.736;2023-05-10T09:41:48;2.53;;;1.00;;
34521;SDS011;25561;48.888;8.736;2023-05-10T09:44:50;2.78;;;0.90;;
34521;SDS011;25561;48.888;8.736;2023-05-10T09:47:54;2.65;;;0.65;;
34521;SDS011;25561;48.888;8.736;2023-05-10T09:50:58;3.83;;;0.88;;
34521;SDS011;25561;48.888;8.736;2023-05-10T09:54:14;4.50;;;1.00;;
34521;SDS011;25561;48.888;8.736;2023-05-10T09:57:18;1.50;;;0.82;;
34521;SDS011;25561;48.888;8.736;2023-05-10T10:00:23;2.17;;;0.70;;
34521;SDS011;25561;48.888;8.736;2023-05-10T10:03:25;1.90;;;0.90;;
34521;SDS011;25561;48.888;8.736;2023-05-10T10:06:34;4.15;;;0.88;;
34521;SDS011;25561;48.888;8.736;2023-05-10T10:09:38;0.93;;;0.65;;
34521;SDS011;25561;48.888;8.736;2023-05-10T10:12:41;5.43;;;0.63;;
34521;SDS011;25561;48.888;8.736;2023-05-10T10:15:43;3.30;;;1.10;;
34521;SDS011;25561;48.888;8.736;2023-05-10T10:18:47;2.10;;;1.00;;
34521;SDS011;25561;48.888;8.736;2023-05-10T10:21:50;2.42;;;0.80;;
34521;SDS011;25561;48.888;8.736;2023-05-10T10:24:52;3.10;;;0.88;;
34521;SDS011;25561;48.888;8.736;2023-05-10T10:27:58;1.85;;;1.25;;
34521;SDS011;25561;48.888;8.736;2023-05-10T10:31:27;3.50;;;1.27;;
34521;SDS011;25561;48.888;8.736;2023-05-10T10:34:40;2.70;;;1.10;;
34521;SDS011;25561;48.888;8.736;2023-05-10T10:37:43;4.60;;;1.27;;
34521;SDS011;25561;48.888;8.736;2023-05-10T10:40:46;5.95;;;1.48;;
34521;SDS011;25561;48.888;8.736;2023-05-10T10:43:49;2.28;;;0.95;;
34521;SDS011;25561;48.888;8.736;2023-05-10T10:50:42;4.25;;;1.73;;
34521;SDS011;25561;48.888;8.736;2023-05-10T10:53:50;1.90;;;1.10;;
34521;SDS011;25561;48.888;8.736;2023-05-10T10:57:11;11.48;;;1.80;;
34521;SDS011;25561;48.888;8.736;2023-05-10T11:00:27;3.33;;;1.42;;
34521;SDS011;25561;48.888;8.736;2023-05-10T11:03:32;5.82;;;1.48;;
34521;SDS011;25561;48.888;8.736;2023-05-10T11:06:34;3.63;;;1.40;;
34521;SDS011;25561;48.888;8.736;2023-05-10T11:09:40;3.22;;;1.20;;
34521;SDS011;25561;48.888;8.736;2023-05-10T11:12:52;4.20;;;1.45;;
34521;SDS011;25561;48.888;8.736;2023-05-10T11:19:22;2.80;;;1.08;;
34521;SDS011;25561;48.888;8.736;2023-05-10T11:22:29;4.07;;;1.20;;
34521;SDS011;25561;48.888;8.736;2023-05-10T11:25:53;3.03;;;0.95;;
34521;SDS011;25561;48.888;8.736;2023-05-10T11:28:56;2.72;;;1.10;;
34521;SDS011;25561;48.888;8.736;2023-05-10T11:31:58;3.15;;;1.20;;
34521;SDS011;25561;48.888;8.736;2023-05-10T11:35:05;3.10;;;1.15;;
34521;SDS011;25561;48.888;8.736;2023-05-10T11:38:13;4.00;;;1.33;;
34521;SDS011;25561;48.888;8.736;2023-05-10T11:41:16;3.20;;;0.75;;
34521;SDS011;25561;48.888;8.736;2023-05-10T11:44:19;2.20;;;1.00;;
34521;SDS011;25561;48.888;8.736;2023-05-10T11:47:21;3.72;;;1.02;;
34521;SDS011;25561;48.888;8.736;2023-05-10T11:50:23;2.97;;;0.88;;
34521;SDS011;25561;48.888;8.736;2023-05-10T11:53:26;2.00;;;1.00;;
34521;SDS011;25561;48.888;8.736;2023-05-10T11:56:29;4.60;;;0.90;;
34521;SDS011;25561;48.888;8.736;2023-05-10T11:59:34;4.45;;;0.70;;
34521;SDS011;25561;48.888;8.736;2023-05-10T12:02:36;4.50;;;0.90;;
34521;SDS011;25561;48.888;8.736;2023-05-10T12:05:39;2.20;;;0.82;;
34521;SDS011;25561;48.888;8.736;2023-05-10T12:08:44;4.65;;;0.70;;
34521;SDS011;25561;48.888;8.736;2023-05-10T12:11:48;2.42;;;0.70;;
34521;SDS011;25561;48.888;8.736;2023-05-10T12:14:50;3.05;;;0.73;;
34521;SDS011;25561;48.888;8.736;2023-05-10T12:17:52;3.17;;;0.98;;
34521;SDS011;25561;48.888;8.736;2023-05-10T12:20:54;3.47;;;0.90;;
34521;SDS011;25561;48.888;8.736;2023-05-10T12:24:04;1.58;;;0.85;;
34521;SDS011;25561;48.888;8.736;2023-05-10T12:27:09;2.92;;;0.80;;
34521;SDS011;25561;48.888;8.736;2023-05-10T12:30:31;2.25;;;1.15;;
34521;SDS011;25561;48.888;8.736;2023-05-10T12:33:37;4.75;;;1.00;;
34521;SDS011;25561;48.888;8.736;2023-05-10T12:36:44;4.05;;;0.90;;
34521;SDS011;25561;48.888;8.736;2023-05-10T12:39:46;4.30;;;0.98;;
34521;SDS011;25561;48.888;8.736;2023-05-10T12:42:48;4.00;;;1.20;;
34521;SDS011;25561;48.888;8.736;2023-05-10T12:45:53;3.00;;;1.20;;
34521;SDS011;25561;48.888;8.736;2023-05-10T12:48:55;4.78;;;1.63;;
34521;SDS011;25561;48.888;8.736;2023-05-10T12:52:09;4.22;;;1.10;;
34521;SDS011;25561;48.888;8.736;2023-05-10T12:55:10;4.57;;;0.90;;
34521;SDS011;25561;48.888;8.736;2023-05-10T12:58:12;5.03;;;0.85;;
34521;SDS011;25561;48.888;8.736;2023-05-10T13:01:32;3.28;;;0.70;;
34521;SDS011;25561;48.888;8.736;2023-05-10T13:04:33;3.65;;;1.00;;
34521;SDS011;25561;48.888;8.736;2023-05-10T13:07:35;0.80;;;0.70;;
34521;SDS011;25561;48.888;8.736;2023-05-10T13:10:37;2.38;;;0.70;;
34521;SDS011;25561;48.888;8.736;2023-05-10T13:13:39;3.38;;;0.88;;
34521;SDS011;25561;48.888;8.736;2023-05-10T13:16:40;2.97;;;1.08;;
34521;SDS011;25561;48.888;8.736;2023-05-10T13:19:42;3.40;;;1.20;;
34521;SDS011;25561;48.888;8.736;2023-05-10T13:22:44;1.77;;;0.80;;
34521;SDS011;25561;48.888;8.736;2023-05-10T13:25:46;4.93;;;1.00;;
34521;SDS011;25561;48.888;8.736;2023-05-10T13:28:48;10.93;;;0.93;;
34521;SDS011;25561;48.888;8.736;2023-05-10T13:31:50;3.33;;;0.90;;
34521;SDS011;25561;48.888;8.736;2023-05-10T13:34:52;6.25;;;1.15;;
34521;SDS011;25561;48.888;8.736;2023-05-10T13:37:54;6.07;;;0.95;;
34521;SDS011;25561;48.888;8.736;2023-05-10T13:40:58;3.60;;;1.00;;
34521;SDS011;25561;48.888;8.736;2023-05-10T13:44:00;1.77;;;0.80;;
34521;SDS011;25561;48.888;8.736;2023-05-10T13:47:02;2.00;;;0.85;;
34521;SDS011;25561;48.888;8.736;2023-05-10T13:50:04;2.88;;;0.70;;
34521;SDS011;25561;48.888;8.736;2023-05-10T13:53:06;3.40;;;1.00;;
34521;SDS011;25561;48.888;8.736;2023-05-10T13:56:07;1.13;;;0.70;;
34521;SDS011;25561;48.888;8.736;2023-05-10T13:59:09;4.20;;;0.93;;
34521;SDS011;25561;48.888;8.736;2023-05-10T14:02:11;4.28;;;0.68;;
34521;SDS011;25561;48.888;8.736;2023-05-10T14:05:14;0.93;;;0.55;;
34521;SDS011;25561;48.888;8.736;2023-05-10T14:08:18;1.10;;;0.60;;
34521;SDS011;25561;48.888;8.736;2023-05-10T14:11:20;1.30;;;0.60;;
34521;SDS011;25561;48.888;8.736;2023-05-10T14:14:24;2.72;;;0.82;;
34521;SDS011;25561;48.888;8.736;2023-05-10T14:17:26;3.78;;;1.10;;
34521;SDS011;25561;48.888;8.736;2023-05-10T14:20:28;2.33;;;0.73;;
34521;SDS011;25561;48.888;8.736;2023-05-10T14:23:30;4.72;;;0.98;;
34521;SDS011;25561;48.888;8.736;2023-05-10T14:26:31;3.10;;;0.90;;
34521;SDS011;25561;48.888;8.736;2023-05-10T14:29:34;3.10;;;0.63;;
34521;SDS011;25561;48.888;8.736;2023-05-10T14:32:35;1.35;;;0.60;;
34521;SDS011;25561;48.888;8.736;2023-05-10T14:35:38;2.35;;;0.70;;
34521;SDS011;25561;48.888;8.736;2023-05-10T14:38:40;2.67;;;0.65;;
34521;SDS011;25561;48.888;8.736;2023-05-10T14:41:42;0.50;;;0.50;;
34521;SDS011;25561;48.888;8.736;2023-05-10T14:44:45;1.23;;;0.70;;
34521;SDS011;25561;48.888;8.736;2023-05-10T14:47:47;3.08;;;0.57;;
34521;SDS011;25561;48.888;8.736;2023-05-10T14:50:49;5.05;;;0.75;;
34521;SDS011;25561;48.888;8.736;2023-05-10T14:53:51;1.05;;;0.73;;
34521;SDS011;25561;48.888;8.736;2023-05-10T14:56:53;2.85;;;0.60;;
34521;SDS011;25561;48.888;8.736;2023-05-10T14:59:55;3.20;;;0.68;;
34521;SDS011;25561;48.888;8.736;2023-05-10T15:02:58;2.40;;;0.80;;
34521;SDS011;25561;48.888;8.736;2023-05-10T15:06:00;5.82;;;0.75;;
34521;SDS011;25561;48.888;8.736;2023-05-10T15:09:02;4.07;;;0.73;;
34521;SDS011;25561;48.888;8.736;2023-05-10T15:12:04;4.22;;;0.63;;
34521;SDS011;25561;48.888;8.736;2023-05-10T15:15:06;3.55;;;0.90;;
34521;SDS011;25561;48.888;8.736;2023-05-10T15:18:09;4.63;;;0.88;;
34521;SDS011;25561;48.888;8.736;2023-05-10T15:21:11;4.38;;;0.60;;
34521;SDS011;25561;48.888;8.736;2023-05-10T15:24:12;3.90;;;0.80;;
34521;SDS011;25561;48.888;8.736;2023-05-10T15:27:14;1.13;;;0.57;;
34521;SDS011;25561;48.888;8.736;2023-05-10T15:30:16;6.13;;;1.00;;
34521;SDS011;25561;48.888;8.736;2023-05-10T15:33:18;2.13;;;0.80;;
34521;SDS011;25561;48.888;8.736;2023-05-10T15:36:19;2.42;;;0.70;;
34521;SDS011;25561;48.888;8.736;2023-05-10T15:39:21;2.22;;;1.20;;
34521;SDS011;25561;48.888;8.736;2023-05-10T15:42:23;4.57;;;1.38;;
34521;SDS011;25561;48.888;8.736;2023-05-10T15:45:25;3.38;;;0.80;;
34521;SDS011;25561;48.888;8.736;2023-05-10T15:48:27;4.47;;;0.80;;
34521;SDS011;25561;48.888;8.736;2023-05-10T15:51:32;2.17;;;0.73;;
34521;SDS011;25561;48.888;8.736;2023-05-10T15:54:36;2.30;;;0.90;;
34521;SDS011;25561;48.888;8.736;2023-05-10T15:57:38;1.52;;;0.98;;
